createdAt,value
2019-02-07T00:00:30.156Z,46.58
2019-02-07T00:03:01.273Z,54.80
2019-02-07T00:05:31.360Z,59.48
2019-02-07T00:08:01.470Z,38.23
2019-02-07T00:10:31.626Z,41.68
2019-02-07T00:13:02.728Z,45.85
2019-02-07T00:15:33.063Z,57.73
2019-02-07T00:18:04.256Z,38.10
2019-02-07T00:20:36.367Z,51.77
2019-02-07T00:23:07.369Z,43.08
2019-02-07T00:25:37.824Z,61.50
2019-02-07T00:28:07.939Z,45.63
2019-02-07T00:30:38.103Z,34.80
2019-02-07T00:33:08.215Z,44.30
2019-02-07T00:35:38.332Z,57.58
2019-02-07T00:38:10.097Z,54.18
2019-02-07T00:40:40.191Z,49.45
2019-02-07T00:43:11.354Z,44.35
2019-02-07T00:45:41.455Z,47.43
2019-02-07T00:48:11.691Z,41.60
2019-02-07T00:50:42.773Z,45.55
2019-02-07T00:53:12.895Z,45.12
2019-02-07T00:55:42.981Z,49.25
2019-02-07T00:58:13.071Z,52.62
2019-02-07T01:00:45.176Z,48.02
2019-02-07T01:03:21.258Z,49.23
2019-02-07T01:05:51.365Z,52.85
2019-02-07T01:08:21.463Z,52.67
2019-02-07T01:10:52.600Z,35.78
2019-02-07T01:13:25.375Z,50.23
2019-02-07T01:15:56.460Z,42.85
2019-02-07T01:18:27.511Z,37.10
2019-02-07T01:21:01.215Z,36.48
2019-02-07T01:23:31.320Z,31.45
2019-02-07T01:26:01.483Z,36.45
2019-02-07T01:28:31.580Z,39.65
2019-02-07T01:31:04.804Z,35.43
2019-02-07T01:33:34.903Z,48.95
2019-02-07T01:36:05.963Z,42.90
2019-02-07T01:38:41.855Z,42.98
2019-02-07T01:41:11.968Z,55.67
2019-02-07T01:43:45.183Z,40.67
2019-02-07T01:46:15.298Z,42.85
2019-02-07T01:48:45.391Z,37.90
2019-02-07T01:51:17.497Z,32.90
2019-02-07T01:53:47.591Z,40.83
2019-02-07T01:56:18.076Z,39.75
2019-02-07T01:58:48.167Z,36.73
2019-02-07T02:01:20.191Z,40.50
2019-02-07T02:03:50.276Z,41.77
2019-02-07T02:06:21.364Z,39.98
2019-02-07T02:08:52.426Z,38.55
2019-02-07T02:11:22.516Z,39.33
2019-02-07T02:13:52.619Z,37.28
2019-02-07T02:16:24.167Z,33.98
2019-02-07T02:18:54.305Z,42.80
2019-02-07T02:21:24.424Z,30.10
2019-02-07T02:23:54.619Z,38.53
2019-02-07T02:26:24.700Z,27.80
2019-02-07T02:28:54.812Z,34.30
2019-02-07T02:31:25.619Z,42.53
2019-02-07T02:33:55.732Z,53.87
2019-02-07T02:36:25.825Z,37.00
2019-02-07T02:38:57.643Z,35.13
2019-02-07T02:41:27.742Z,41.53
2019-02-07T02:43:57.836Z,39.50
2019-02-07T02:46:27.963Z,37.42
2019-02-07T02:48:58.120Z,38.42
2019-02-07T02:51:28.587Z,35.48
2019-02-07T02:54:00.568Z,26.40
2019-02-07T02:56:30.644Z,37.78
2019-02-07T02:59:01.772Z,34.45
2019-02-07T03:01:39.345Z,30.12
2019-02-07T03:04:17.148Z,33.85
2019-02-07T03:07:05.091Z,47.88
2019-02-07T03:09:47.715Z,28.90
2019-02-07T03:12:38.437Z,23.85
2019-02-07T03:15:18.765Z,32.25
2019-02-07T03:18:06.764Z,30.27
2019-02-07T03:20:53.416Z,25.92
2019-02-07T03:23:41.104Z,39.53
2019-02-07T03:26:29.148Z,29.32
2019-02-07T03:29:18.836Z,37.67
2019-02-07T03:31:55.969Z,30.52
2019-02-07T03:34:28.694Z,37.28
2019-02-07T03:37:11.209Z,32.60
2019-02-07T03:39:45.961Z,27.62
2019-02-07T03:42:17.688Z,30.45
2019-02-07T03:44:57.969Z,27.55
2019-02-07T03:47:41.709Z,19.67
2019-02-07T03:50:29.744Z,21.00
2019-02-07T03:53:17.519Z,35.05
2019-02-07T03:56:03.104Z,33.50
2019-02-07T03:58:43.780Z,30.65
2019-02-07T04:01:18.352Z,30.55
2019-02-07T04:03:56.932Z,31.40
2019-02-07T04:06:35.658Z,31.97
2019-02-07T04:09:11.748Z,40.17
2019-02-07T04:12:08.844Z,30.50
2019-02-07T04:14:45.788Z,39.80
2019-02-07T04:17:21.276Z,51.60
2019-02-07T04:20:09.566Z,30.97
2019-02-07T04:22:44.260Z,36.70
2019-02-07T04:25:16.941Z,36.88
2019-02-07T04:27:48.920Z,29.57
2019-02-07T04:30:21.590Z,42.33
2019-02-07T04:33:08.280Z,34.35
2019-02-07T04:35:48.752Z,34.50
2019-02-07T04:38:29.342Z,35.40
2019-02-07T04:41:02.000Z,40.80
2019-02-07T04:43:33.752Z,38.05
2019-02-07T04:46:27.218Z,44.60
2019-02-07T04:49:05.116Z,42.30
2019-02-07T04:51:36.876Z,37.33
2019-02-07T04:54:08.698Z,35.52
2019-02-07T04:56:49.505Z,39.27
2019-02-07T04:59:38.036Z,41.00
2019-02-07T05:02:21.530Z,37.73
2019-02-07T05:05:01.331Z,46.37
2019-02-07T05:07:49.516Z,48.75
2019-02-07T05:10:32.710Z,38.92
2019-02-07T05:13:20.512Z,45.43
2019-02-07T05:16:06.894Z,57.70
2019-02-07T05:18:48.180Z,54.93
2019-02-07T05:21:37.945Z,36.98
2019-02-07T05:24:10.970Z,48.50
2019-02-07T05:26:58.764Z,58.90
2019-02-07T05:29:48.768Z,56.40
2019-02-07T05:32:39.544Z,62.25
2019-02-07T05:35:22.524Z,45.98
2019-02-07T05:38:03.728Z,47.50
2019-02-07T05:40:41.733Z,47.65
2019-02-07T05:43:22.384Z,44.35
2019-02-07T05:45:54.140Z,56.08
2019-02-07T05:48:34.744Z,64.00
2019-02-07T05:51:19.452Z,58.85
2019-02-07T05:54:03.079Z,64.32
2019-02-07T05:56:37.596Z,69.22
2019-02-07T05:59:12.084Z,56.58
2019-02-07T06:01:51.576Z,48.15
2019-02-07T06:04:23.935Z,47.38
2019-02-07T06:06:55.795Z,53.25
2019-02-07T06:09:27.596Z,60.38
2019-02-07T06:12:17.028Z,62.30
2019-02-07T06:14:57.557Z,57.10
2019-02-07T06:17:53.896Z,58.58
2019-02-07T06:20:31.941Z,52.65
2019-02-07T06:23:10.685Z,52.75
2019-02-07T06:25:43.633Z,50.98
2019-02-07T06:28:23.520Z,66.28
2019-02-07T06:31:05.358Z,75.28
2019-02-07T06:33:46.128Z,64.72
2019-02-07T06:36:43.704Z,63.05
2019-02-07T06:39:36.681Z,64.22
2019-02-07T06:42:24.705Z,61.50
2019-02-07T06:45:08.368Z,62.78
2019-02-07T06:47:42.805Z,67.08
2019-02-07T06:50:27.479Z,54.15
2019-02-07T06:53:01.885Z,62.10
2019-02-07T06:55:57.261Z,77.45
2019-02-07T06:58:38.645Z,65.83
2019-02-07T07:01:10.405Z,48.50
2019-02-07T07:03:44.756Z,60.05
2019-02-07T07:06:18.428Z,57.65
2019-02-07T07:09:06.043Z,48.52
2019-02-07T07:11:40.464Z,60.48
2019-02-07T07:14:23.740Z,53.75
2019-02-07T07:16:58.824Z,47.78
2019-02-07T07:19:30.572Z,80.77
2019-02-07T07:22:10.284Z,65.30
2019-02-07T07:24:56.307Z,57.90
2019-02-07T07:27:41.020Z,49.00
2019-02-07T07:30:19.526Z,61.00
2019-02-07T07:32:53.824Z,67.05
2019-02-07T07:35:32.163Z,59.08
2019-02-07T07:38:09.856Z,65.20
2019-02-07T07:40:53.933Z,59.67
2019-02-07T07:43:36.328Z,48.73
2019-02-07T07:46:20.273Z,59.60
2019-02-07T07:48:59.584Z,67.67
2019-02-07T07:51:32.289Z,67.95
2019-02-07T07:54:04.008Z,69.85
2019-02-07T07:56:42.681Z,60.73
2019-02-07T07:59:25.970Z,52.95
2019-02-07T08:02:00.104Z,64.53
2019-02-07T08:04:32.812Z,66.85
2019-02-07T08:07:22.428Z,57.93
2019-02-07T08:09:57.104Z,39.95
2019-02-07T08:12:37.994Z,46.75
2019-02-07T08:15:31.684Z,75.60
2019-02-07T08:18:09.224Z,55.52
2019-02-07T08:20:53.918Z,58.08
2019-02-07T08:23:43.840Z,70.57
2019-02-07T08:26:34.752Z,61.90
2019-02-07T08:32:30.101Z,62.55
2019-02-07T08:35:11.876Z,77.15
2019-02-07T08:38:15.536Z,60.35
2019-02-07T08:40:53.288Z,60.00
2019-02-07T08:43:37.256Z,58.58
2019-02-07T08:46:11.809Z,72.53
2019-02-07T08:48:44.412Z,53.92
2019-02-07T08:51:16.170Z,73.65
2019-02-07T08:53:50.545Z,74.72
2019-02-07T08:56:28.348Z,63.23
2019-02-07T08:59:14.920Z,69.40
2019-02-07T09:01:46.660Z,60.17
2019-02-07T09:04:21.352Z,63.83
2019-02-07T09:07:09.641Z,52.95
2019-02-07T09:09:43.996Z,44.77
2019-02-07T09:12:33.400Z,54.67
2019-02-07T09:15:08.023Z,61.25
2019-02-07T09:17:47.696Z,78.10
2019-02-07T09:20:19.425Z,59.40
2019-02-07T09:22:56.849Z,56.10
2019-02-07T09:25:47.393Z,74.62
2019-02-07T09:28:19.164Z,60.83
2019-02-07T09:31:02.906Z,68.87
2019-02-07T09:33:49.580Z,53.98
2019-02-07T09:36:25.096Z,55.78
2019-02-07T09:39:13.813Z,60.10
2019-02-07T09:41:45.549Z,60.12
2019-02-07T09:44:29.236Z,58.40
2019-02-07T09:47:05.702Z,51.13
2019-02-07T09:49:43.169Z,51.37
2019-02-07T09:52:26.918Z,49.88
2019-02-07T09:54:58.728Z,49.65
2019-02-07T09:57:30.464Z,62.03
2019-02-07T10:00:17.976Z,56.25
2019-02-07T10:03:02.309Z,57.10
2019-02-07T10:05:42.798Z,38.17
2019-02-07T10:08:17.189Z,69.67
2019-02-07T10:10:48.928Z,54.03
2019-02-07T10:13:26.524Z,60.58
2019-02-07T10:16:04.020Z,67.05
2019-02-07T10:18:35.740Z,47.20
2019-02-07T10:21:19.424Z,65.47
2019-02-07T10:23:51.157Z,64.00
2019-02-07T10:26:22.892Z,57.13
2019-02-07T10:29:10.760Z,47.23
2019-02-07T10:31:58.965Z,58.42
2019-02-07T10:34:46.553Z,73.47
2019-02-07T10:37:33.266Z,68.60
2019-02-07T10:40:27.030Z,58.58
2019-02-07T10:42:58.777Z,54.03
2019-02-07T10:45:47.568Z,55.83
2019-02-07T10:48:44.276Z,53.70
2019-02-07T10:51:08.673Z,59.35
2019-02-07T10:53:49.328Z,44.53
2019-02-07T10:56:21.060Z,60.35
2019-02-07T10:58:55.709Z,54.03
2019-02-07T11:01:44.137Z,52.50
2019-02-07T11:04:18.532Z,55.17
2019-02-07T11:07:05.682Z,56.30
2019-02-07T11:09:37.416Z,56.08
2019-02-07T11:12:23.999Z,55.88
2019-02-07T11:15:13.996Z,53.38
2019-02-07T11:17:58.989Z,49.67
2019-02-07T11:20:30.708Z,49.35
2019-02-07T11:23:13.724Z,52.08
2019-02-07T11:25:49.917Z,46.35
2019-02-07T11:28:37.920Z,42.78
2019-02-07T11:31:09.800Z,51.70
2019-02-07T11:33:44.466Z,47.78
2019-02-07T11:36:26.388Z,62.50
2019-02-07T11:39:14.964Z,52.13
2019-02-07T11:41:52.777Z,45.20
2019-02-07T11:44:53.478Z,58.38
2019-02-07T11:47:45.832Z,53.92
2019-02-07T11:50:26.514Z,61.08
2019-02-07T11:53:07.196Z,55.30
2019-02-07T11:55:58.025Z,52.08
2019-02-07T11:58:48.021Z,55.67
2019-02-07T12:01:25.897Z,56.73
2019-02-07T12:04:03.685Z,57.62
2019-02-07T12:06:35.424Z,51.90
2019-02-07T12:09:27.568Z,47.60
2019-02-07T12:12:14.476Z,42.67
2019-02-07T12:14:50.708Z,39.05
2019-02-07T12:17:30.029Z,58.50
2019-02-07T12:20:14.704Z,55.28
2019-02-07T12:22:49.872Z,57.40
2019-02-07T12:25:24.336Z,52.60
2019-02-07T12:28:13.636Z,57.08
2019-02-07T12:30:57.661Z,60.00
2019-02-07T12:33:44.158Z,47.65
2019-02-07T12:36:19.791Z,55.63
2019-02-07T12:39:16.001Z,57.17
2019-02-07T12:41:50.697Z,60.00
2019-02-07T12:44:40.849Z,64.10
2019-02-07T12:47:12.590Z,63.90
2019-02-07T12:50:00.342Z,68.50
2019-02-07T12:52:35.077Z,60.65
2019-02-07T12:55:11.012Z,57.17
2019-02-07T12:57:59.833Z,69.65
2019-02-07T13:00:42.278Z,64.15
2019-02-07T13:03:25.841Z,58.38
2019-02-07T13:06:00.429Z,48.28
2019-02-07T13:08:35.269Z,71.35
2019-02-07T13:11:18.045Z,61.20
2019-02-07T13:14:07.796Z,56.40
2019-02-07T13:16:55.551Z,58.80
2019-02-07T13:19:44.654Z,59.67
2019-02-07T13:22:25.318Z,70.25
2019-02-07T13:25:02.461Z,66.53
2019-02-07T13:27:52.323Z,67.30
2019-02-07T13:30:30.011Z,61.28
2019-02-07T13:33:22.267Z,52.40
2019-02-07T13:36:10.590Z,61.13
2019-02-07T13:38:59.734Z,57.08
2019-02-07T13:41:31.802Z,67.20
2019-02-07T13:44:20.213Z,72.20
2019-02-07T13:46:52.021Z,59.77
2019-02-07T13:49:38.810Z,68.85
2019-02-07T13:52:11.496Z,61.85
2019-02-07T13:54:44.183Z,78.70
2019-02-07T13:57:30.972Z,59.00
2019-02-07T14:00:07.610Z,62.17
2019-02-07T14:02:52.259Z,80.25
2019-02-07T14:05:38.647Z,75.17
2019-02-07T14:08:10.523Z,67.42
2019-02-07T14:10:57.177Z,63.58
2019-02-07T14:13:51.077Z,54.80
2019-02-07T14:16:48.192Z,63.83
2019-02-07T14:19:50.457Z,62.80
2019-02-07T14:22:44.357Z,71.33
2019-02-07T14:25:42.069Z,66.82
2019-02-07T14:28:38.497Z,54.20
2019-02-07T14:31:12.966Z,59.65
2019-02-07T14:34:17.241Z,64.00
2019-02-07T14:40:53.350Z,62.05
2019-02-07T14:47:11.701Z,55.38
2019-02-07T14:49:41.989Z,64.10
2019-02-07T14:52:18.321Z,64.40
2019-02-07T14:54:50.244Z,61.15
2019-02-07T14:57:29.687Z,63.45
2019-02-07T15:00:00.189Z,62.25
2019-02-07T15:02:31.147Z,60.20
2019-02-07T15:05:01.247Z,65.78
2019-02-07T15:07:49.785Z,73.00
2019-02-07T15:10:26.180Z,57.43
2019-02-07T15:13:08.405Z,55.05
2019-02-07T15:15:56.999Z,61.88
2019-02-07T15:18:28.197Z,60.63
2019-02-07T15:21:00.228Z,48.33
2019-02-07T15:23:32.208Z,59.65
2019-02-07T15:26:04.813Z,65.22
2019-02-07T15:28:45.217Z,61.90
2019-02-07T15:31:15.357Z,59.60
2019-02-07T15:33:47.418Z,65.78
2019-02-07T15:36:47.701Z,63.85
2019-02-07T15:39:19.897Z,65.72
2019-02-07T15:42:00.115Z,60.12
2019-02-07T15:44:31.453Z,64.12
2019-02-07T15:47:05.042Z,64.80
2019-02-07T15:49:45.988Z,62.25
2019-02-07T15:52:47.397Z,54.50
2019-02-07T15:55:27.809Z,54.93
2019-02-07T15:57:58.253Z,78.33
2019-02-07T16:00:38.353Z,78.42
2019-02-07T16:03:27.125Z,70.08
2019-02-07T16:06:08.025Z,62.40
2019-02-07T16:08:38.177Z,71.28
2019-02-07T16:12:20.257Z,68.80
2019-02-07T16:14:59.181Z,75.83
2019-02-07T16:21:18.681Z,57.25
2019-02-07T16:24:39.045Z,76.60
2019-02-07T16:30:57.437Z,53.70
2019-02-07T16:33:31.177Z,60.48
2019-02-07T16:43:50.413Z,63.65
2019-02-07T16:50:34.139Z,59.18
2019-02-07T16:56:52.663Z,69.67
2019-02-07T17:03:11.081Z,63.87
2019-02-07T17:09:30.643Z,62.70
2019-02-07T17:22:32.626Z,68.97
2019-02-07T17:29:03.174Z,65.03
2019-02-07T17:35:22.593Z,54.35
2019-02-07T17:45:34.719Z,60.75
2019-02-07T17:49:15.402Z,61.60
2019-02-07T17:51:46.509Z,59.60
2019-02-07T17:54:45.929Z,69.58
2019-02-07T17:57:21.476Z,58.40
2019-02-07T18:03:39.675Z,61.65
2019-02-07T18:09:57.861Z,58.75
2019-02-07T18:16:16.525Z,63.65
2019-02-07T18:22:55.128Z,58.92
2019-02-07T18:29:17.122Z,57.78
2019-02-07T18:39:32.466Z,61.83
2019-02-07T18:45:51.085Z,50.98
2019-02-07T18:49:00.462Z,64.50
2019-02-07T18:53:03.978Z,64.17
2019-02-07T18:59:40.558Z,67.72
2019-02-07T19:06:11.350Z,60.30
2019-02-07T19:12:30.541Z,69.00
2019-02-07T19:19:19.471Z,57.17
2019-02-07T19:22:20.204Z,65.22
2019-02-07T19:25:31.431Z,61.25
2019-02-07T19:32:02.706Z,55.60
2019-02-07T19:38:33.663Z,60.67
2019-02-07T19:45:09.961Z,58.90
2019-02-07T19:49:03.034Z,58.10
2019-02-07T19:52:08.199Z,67.25
2019-02-07T19:55:54.126Z,66.40
2019-02-07T19:58:42.142Z,64.42
2019-02-07T20:01:36.350Z,65.10
2019-02-07T20:05:00.448Z,71.05
2019-02-07T20:07:52.166Z,67.20
2019-02-07T20:11:18.626Z,66.02
2019-02-07T20:14:07.362Z,68.87
2019-02-07T20:17:24.078Z,67.97
2019-02-07T20:23:55.065Z,71.42
2019-02-07T20:30:45.526Z,67.35
2019-02-07T20:38:22.322Z,75.45
2019-02-07T20:44:48.894Z,63.85
2019-02-07T20:47:40.086Z,66.53
2019-02-07T20:50:20.508Z,68.83
2019-02-07T20:52:51.614Z,62.80
2019-02-07T20:55:49.096Z,63.87
2019-02-07T20:59:49.663Z,70.85
2019-02-07T21:02:31.750Z,70.30
2019-02-07T21:05:12.416Z,69.67
2019-02-07T21:08:05.850Z,71.12
2019-02-07T21:11:34.546Z,78.10
2019-02-07T21:14:35.214Z,73.05
2019-02-07T21:17:11.118Z,67.42
2019-02-07T21:23:29.950Z,66.53
2019-02-07T21:26:14.358Z,70.72
2019-02-07T21:29:03.122Z,70.10
2019-02-07T21:31:42.245Z,64.07
2019-02-07T21:34:25.406Z,67.58
2019-02-07T21:37:05.779Z,107.52
2019-02-07T21:39:44.035Z,71.70
2019-02-07T21:42:19.850Z,77.22
2019-02-07T21:44:50.923Z,77.22
2019-02-07T21:47:22.034Z,76.42
2019-02-07T21:49:52.139Z,69.37
2019-02-07T21:52:22.230Z,77.35
2019-02-07T21:54:52.527Z,79.35
2019-02-07T21:57:22.618Z,73.75
2019-02-07T22:00:00.766Z,84.47
2019-02-07T22:02:27.458Z,84.22
2019-02-07T22:05:00.538Z,84.95
2019-02-07T22:07:30.811Z,81.00
2019-02-07T22:10:01.839Z,74.70
2019-02-07T22:12:37.759Z,85.28
2019-02-07T22:15:22.498Z,83.58
2019-02-07T22:17:53.782Z,91.90
2019-02-07T22:20:33.446Z,86.80
2019-02-07T22:23:10.330Z,81.95
2019-02-07T22:25:40.443Z,64.80
2019-02-07T22:28:12.116Z,92.00
2019-02-07T22:30:42.214Z,94.92
2019-02-07T22:33:13.240Z,77.60
2019-02-07T22:35:51.299Z,83.05
2019-02-07T22:38:21.402Z,104.75
2019-02-07T22:40:52.718Z,81.90
2019-02-07T22:43:23.774Z,90.30
2019-02-07T22:45:54.668Z,87.72
2019-02-07T22:48:29.938Z,89.55
2019-02-07T22:51:07.078Z,89.35
2019-02-07T22:53:38.160Z,95.62
2019-02-07T22:56:21.178Z,99.25
2019-02-07T22:58:53.674Z,104.20
2019-02-07T23:01:40.694Z,89.95
2019-02-07T23:04:13.194Z,92.22
2019-02-07T23:06:58.598Z,101.72
2019-02-07T23:09:51.214Z,95.77
2019-02-07T23:12:31.331Z,108.65
2019-02-07T23:15:08.490Z,145.50
2019-02-07T23:17:48.482Z,87.75
2019-02-07T23:20:52.510Z,105.27
2019-02-07T23:23:41.191Z,96.60
2019-02-07T23:26:26.994Z,98.78
2019-02-07T23:29:10.338Z,113.90
2019-02-07T23:32:06.590Z,92.42
2019-02-07T23:34:38.641Z,113.42
2019-02-07T23:37:33.895Z,178.85
2019-02-07T23:40:15.982Z,173.15
2019-02-07T23:42:46.260Z,223.97
2019-02-07T23:45:25.327Z,289.93
2019-02-07T23:48:02.487Z,350.73
2019-02-07T23:50:32.617Z,198.30
2019-02-07T23:53:03.996Z,113.92
2019-02-07T23:55:34.139Z,118.50
2019-02-07T23:58:19.310Z,95.10
